createdAt,value
2019-05-17T00:00:52.895Z,28.32
2019-05-17T00:01:57.945Z,26.12
2019-05-17T00:03:03.567Z,26.55
2019-05-17T00:04:08.564Z,31.00
2019-05-17T00:05:14.214Z,26.15
2019-05-17T00:06:19.225Z,24.52
2019-05-17T00:07:27.139Z,24.35
2019-05-17T00:08:34.723Z,22.35
2019-05-17T00:09:38.966Z,23.90
2019-05-17T00:10:46.398Z,24.32
2019-05-17T00:11:51.165Z,21.57
2019-05-17T00:12:56.478Z,25.55
2019-05-17T00:14:01.883Z,24.82
2019-05-17T00:15:07.830Z,23.73
2019-05-17T00:16:13.493Z,25.17
2019-05-17T00:17:18.534Z,25.52
2019-05-17T00:18:26.321Z,23.12
2019-05-17T00:19:30.735Z,22.25
2019-05-17T00:20:37.412Z,23.95
2019-05-17T00:21:42.680Z,25.10
2019-05-17T00:22:48.174Z,27.40
2019-05-17T00:23:53.365Z,23.95
2019-05-17T00:24:58.892Z,22.20
2019-05-17T00:26:03.985Z,21.93
2019-05-17T00:27:09.473Z,24.50
2019-05-17T00:28:16.368Z,23.42
2019-05-17T00:29:23.470Z,21.95
2019-05-17T00:30:28.445Z,21.65
2019-05-17T00:31:33.991Z,23.40
2019-05-17T00:32:39.333Z,24.37
2019-05-17T00:33:47.055Z,23.32
2019-05-17T00:34:51.511Z,23.18
2019-05-17T00:35:57.257Z,26.12
2019-05-17T00:37:02.228Z,23.00
2019-05-17T00:38:07.829Z,23.90
2019-05-17T00:39:12.821Z,25.15
2019-05-17T00:40:18.541Z,25.37
2019-05-17T00:41:23.496Z,26.07
2019-05-17T00:42:29.053Z,26.45
2019-05-17T00:43:34.052Z,23.75
2019-05-17T00:44:39.781Z,24.43
2019-05-17T00:45:46.689Z,24.63
2019-05-17T00:46:52.397Z,25.80
2019-05-17T00:47:57.385Z,26.62
2019-05-17T00:49:03.209Z,23.77
2019-05-17T00:50:10.881Z,26.77
2019-05-17T00:51:16.815Z,24.05
2019-05-17T00:52:21.880Z,24.25
2019-05-17T00:53:27.348Z,28.00
2019-05-17T00:54:32.273Z,21.75
2019-05-17T00:55:38.086Z,22.87
2019-05-17T00:56:43.086Z,21.62
2019-05-17T00:57:48.665Z,25.45
2019-05-17T00:58:53.951Z,24.92
2019-05-17T00:59:59.493Z,24.65
2019-05-17T01:01:07.526Z,23.32
2019-05-17T01:02:11.864Z,26.60
2019-05-17T01:03:16.849Z,20.27
2019-05-17T01:04:22.705Z,22.60
2019-05-17T01:05:27.700Z,23.60
2019-05-17T01:06:33.254Z,24.05
2019-05-17T01:07:38.200Z,22.00
2019-05-17T01:08:43.763Z,25.37
2019-05-17T01:09:48.990Z,22.10
2019-05-17T01:10:56.486Z,23.22
2019-05-17T01:12:01.420Z,22.75
2019-05-17T01:13:07.155Z,22.22
2019-05-17T01:14:12.094Z,22.90
2019-05-17T01:15:18.356Z,22.40
2019-05-17T01:16:23.281Z,25.15
2019-05-17T01:17:28.936Z,24.37
2019-05-17T01:18:36.145Z,19.40
2019-05-17T01:19:41.258Z,20.77
2019-05-17T01:20:47.444Z,20.85
2019-05-17T01:21:53.137Z,21.90
2019-05-17T01:22:58.433Z,23.05
2019-05-17T01:24:04.061Z,20.72
2019-05-17T01:25:09.427Z,22.17
2019-05-17T01:26:15.221Z,21.35
2019-05-17T01:27:20.171Z,22.42
2019-05-17T01:28:26.918Z,22.60
2019-05-17T01:29:31.958Z,22.67
2019-05-17T01:30:37.765Z,23.00
2019-05-17T01:31:42.666Z,23.22
2019-05-17T01:32:48.458Z,19.65
2019-05-17T01:33:56.430Z,19.27
2019-05-17T01:35:07.008Z,22.37
2019-05-17T01:36:11.379Z,20.20
2019-05-17T01:37:17.373Z,23.90
2019-05-17T01:38:22.353Z,22.90
2019-05-17T01:39:27.841Z,20.77
2019-05-17T01:40:32.783Z,24.00
2019-05-17T01:41:38.342Z,20.45
2019-05-17T01:42:43.261Z,21.33
2019-05-17T01:43:49.106Z,22.82
2019-05-17T01:44:54.025Z,19.67
2019-05-17T01:45:59.572Z,19.37
2019-05-17T01:47:04.586Z,18.57
2019-05-17T01:48:10.236Z,20.60
2019-05-17T01:49:16.501Z,17.70
2019-05-17T01:50:22.104Z,19.90
2019-05-17T01:51:27.117Z,18.52
2019-05-17T01:52:32.613Z,23.62
2019-05-17T01:53:37.554Z,21.37
2019-05-17T01:54:43.406Z,19.65
2019-05-17T01:55:48.323Z,19.23
2019-05-17T01:56:56.531Z,22.10
2019-05-17T01:58:01.381Z,20.27
2019-05-17T02:01:11.031Z,22.55
2019-05-17T02:02:19.094Z,22.07
2019-05-17T02:03:26.627Z,24.47
2019-05-17T02:04:31.721Z,23.40
2019-05-17T02:05:37.462Z,22.35
2019-05-17T02:06:43.059Z,22.52
2019-05-17T02:07:48.139Z,22.32
2019-05-17T02:08:53.657Z,21.82
2019-05-17T02:09:58.716Z,20.52
2019-05-17T02:11:06.648Z,22.52
2019-05-17T02:12:11.239Z,20.40
2019-05-17T02:13:16.827Z,20.97
2019-05-17T02:14:22.169Z,23.40
2019-05-17T02:15:28.065Z,23.30
2019-05-17T02:16:33.206Z,22.00
2019-05-17T02:17:39.189Z,23.32
2019-05-17T02:18:46.472Z,25.12
2019-05-17T02:19:51.725Z,22.55
2019-05-17T02:20:57.150Z,21.50
2019-05-17T02:22:04.165Z,23.95
2019-05-17T02:23:09.114Z,26.90
2019-05-17T02:24:16.790Z,23.75
2019-05-17T02:25:22.142Z,22.65
2019-05-17T02:26:27.731Z,23.12
2019-05-17T02:27:38.237Z,23.25
2019-05-17T02:28:41.453Z,23.52
2019-05-17T02:29:46.576Z,21.17
2019-05-17T02:30:52.997Z,26.05
2019-05-17T02:31:58.568Z,22.48
2019-05-17T02:33:04.828Z,20.15
2019-05-17T02:34:09.866Z,24.05
2019-05-17T02:35:15.959Z,24.80
2019-05-17T02:36:22.839Z,23.90
2019-05-17T02:37:28.190Z,24.27
2019-05-17T02:38:33.647Z,25.88
2019-05-17T02:39:57.132Z,22.77
2019-05-17T02:40:46.748Z,26.40
2019-05-17T02:41:53.359Z,24.82
2019-05-17T02:42:58.576Z,24.37
2019-05-17T02:44:04.321Z,25.75
2019-05-17T02:45:12.984Z,25.62
2019-05-17T02:46:17.453Z,23.52
2019-05-17T02:47:23.165Z,24.55
2019-05-17T02:48:28.815Z,24.35
2019-05-17T02:49:33.815Z,24.87
2019-05-17T02:50:39.501Z,24.52
2019-05-17T02:51:44.891Z,23.38
2019-05-17T02:52:52.825Z,23.77
2019-05-17T02:53:57.475Z,25.92
2019-05-17T02:55:03.966Z,22.55
2019-05-17T02:56:13.049Z,23.83
2019-05-17T02:57:17.251Z,22.10
2019-05-17T02:58:23.281Z,25.68
2019-05-17T02:59:29.277Z,24.50
2019-05-17T03:00:35.171Z,22.15
2019-05-17T03:01:44.311Z,27.85
2019-05-17T03:02:47.809Z,27.05
2019-05-17T03:03:53.315Z,26.17
2019-05-17T03:04:58.354Z,25.75
2019-05-17T03:06:04.275Z,24.47
2019-05-17T03:07:09.283Z,24.35
2019-05-17T03:08:14.787Z,29.30
2019-05-17T03:09:22.664Z,26.40
2019-05-17T03:10:28.935Z,25.05
2019-05-17T03:11:34.213Z,30.72
2019-05-17T03:12:39.710Z,25.65
2019-05-17T03:13:45.717Z,24.35
2019-05-17T03:14:52.862Z,28.12
2019-05-17T03:15:58.487Z,27.50
2019-05-17T03:17:04.060Z,25.10
2019-05-17T03:18:13.198Z,28.70
2019-05-17T03:19:17.272Z,24.18
2019-05-17T03:20:23.207Z,26.65
2019-05-17T03:21:29.039Z,26.05
2019-05-17T03:22:34.279Z,26.00
2019-05-17T03:23:43.239Z,26.75
2019-05-17T03:24:46.449Z,26.50
2019-05-17T03:25:52.686Z,28.30
2019-05-17T03:26:57.876Z,25.05
2019-05-17T03:28:03.802Z,26.52
2019-05-17T03:29:09.586Z,26.50
2019-05-17T03:30:18.292Z,26.37
2019-05-17T03:31:26.188Z,27.65
2019-05-17T03:32:36.020Z,28.50
2019-05-17T03:33:38.904Z,26.97
2019-05-17T03:34:55.278Z,29.32
2019-05-17T03:35:57.351Z,24.23
2019-05-17T03:37:06.512Z,25.17
2019-05-17T03:38:13.886Z,27.62
2019-05-17T03:39:18.516Z,27.42
2019-05-17T03:40:47.451Z,24.27
2019-05-17T03:41:33.756Z,26.87
2019-05-17T03:42:37.679Z,25.90
2019-05-17T03:43:44.356Z,26.42
2019-05-17T03:44:52.896Z,26.25
2019-05-17T03:45:57.200Z,25.80
2019-05-17T03:47:02.526Z,23.77
2019-05-17T03:48:08.167Z,27.15
2019-05-17T03:49:13.326Z,24.43
2019-05-17T03:50:22.486Z,26.10
2019-05-17T03:51:26.348Z,26.40
2019-05-17T03:52:33.300Z,28.00
2019-05-17T03:53:38.589Z,27.55
2019-05-17T03:54:44.376Z,23.35
2019-05-17T03:55:49.406Z,25.82
2019-05-17T03:56:54.998Z,27.85
2019-05-17T03:58:03.049Z,26.93
2019-05-17T03:59:07.471Z,27.50
2019-05-17T04:00:13.594Z,27.25
2019-05-17T04:01:19.234Z,29.75
2019-05-17T04:02:24.667Z,26.12
2019-05-17T04:03:35.059Z,26.85
2019-05-17T04:04:37.335Z,24.07
2019-05-17T04:05:43.351Z,25.15
2019-05-17T04:06:48.653Z,23.42
2019-05-17T04:07:54.420Z,26.17
2019-05-17T04:08:59.354Z,23.98
2019-05-17T04:10:05.836Z,25.17
2019-05-17T04:11:22.130Z,23.75
2019-05-17T04:12:18.629Z,25.60
2019-05-17T04:13:23.871Z,24.65
2019-05-17T04:14:33.335Z,27.10
2019-05-17T04:15:37.048Z,27.13
2019-05-17T04:16:43.106Z,24.70
2019-05-17T04:17:48.429Z,24.75
2019-05-17T04:18:54.000Z,26.15
2019-05-17T04:20:02.959Z,23.25
2019-05-17T04:21:06.289Z,24.50
2019-05-17T04:22:13.774Z,25.72
2019-05-17T04:23:18.662Z,24.05
2019-05-17T04:24:23.634Z,26.25
2019-05-17T04:25:29.122Z,22.55
2019-05-17T04:26:34.431Z,25.80
2019-05-17T04:27:43.532Z,26.10
2019-05-17T04:28:47.370Z,21.27
2019-05-17T04:29:53.429Z,23.90
2019-05-17T04:30:58.604Z,23.90
2019-05-17T04:32:04.489Z,28.47
2019-05-17T04:33:12.788Z,27.25
2019-05-17T04:34:16.924Z,26.45
2019-05-17T04:35:23.209Z,26.27
2019-05-17T04:36:32.176Z,24.95
2019-05-17T04:37:38.545Z,24.18
2019-05-17T04:38:43.836Z,20.45
2019-05-17T04:39:52.260Z,23.50
2019-05-17T04:40:56.223Z,21.12
2019-05-17T04:42:03.691Z,25.80
2019-05-17T04:43:09.471Z,25.05
2019-05-17T04:44:14.703Z,20.95
2019-05-17T04:45:23.066Z,22.95
2019-05-17T04:46:27.651Z,20.97
2019-05-17T04:47:33.943Z,21.75
2019-05-17T04:48:38.881Z,28.15
2019-05-17T04:49:45.949Z,21.33
2019-05-17T04:50:53.723Z,22.52
2019-05-17T04:51:59.465Z,24.52
2019-05-17T04:53:05.253Z,26.80
2019-05-17T04:54:13.723Z,22.40
2019-05-17T04:55:17.700Z,21.82
2019-05-17T04:56:23.259Z,25.50
2019-05-17T04:57:28.477Z,21.90
2019-05-17T04:58:34.127Z,20.90
2019-05-17T04:59:39.212Z,23.83
2019-05-17T05:00:45.454Z,23.57
2019-05-17T05:01:53.517Z,24.80
2019-05-17T05:02:57.708Z,27.95
2019-05-17T05:04:03.823Z,22.48
2019-05-17T05:06:08.028Z,22.67
2019-05-17T05:07:13.995Z,22.25
2019-05-17T05:08:22.219Z,21.25
2019-05-17T05:09:26.342Z,23.75
2019-05-17T05:10:33.864Z,23.10
2019-05-17T05:11:52.105Z,19.50
2019-05-17T05:12:46.226Z,23.05
2019-05-17T05:13:53.137Z,21.37
2019-05-17T05:14:58.250Z,20.92
2019-05-17T05:16:03.768Z,21.02
2019-05-17T05:17:08.694Z,24.55
2019-05-17T05:18:14.722Z,22.00
2019-05-17T05:19:22.211Z,22.30
2019-05-17T05:20:26.950Z,21.65
2019-05-17T05:21:32.572Z,21.87
2019-05-17T05:22:38.048Z,22.32
2019-05-17T05:23:43.317Z,22.05
2019-05-17T05:24:49.178Z,20.32
2019-05-17T05:25:54.420Z,23.50
2019-05-17T05:27:02.446Z,22.40
2019-05-17T05:28:06.990Z,20.32
2019-05-17T05:29:12.976Z,20.10
2019-05-17T05:30:18.775Z,22.13
2019-05-17T05:31:24.375Z,19.23
2019-05-17T05:32:31.521Z,23.67
2019-05-17T05:33:37.452Z,19.35
2019-05-17T05:34:45.965Z,19.73
2019-05-17T05:35:51.724Z,22.13
2019-05-17T05:36:56.966Z,24.50
2019-05-17T05:38:02.827Z,22.75
2019-05-17T05:39:08.342Z,18.15
2019-05-17T05:40:14.123Z,19.85
2019-05-17T05:41:19.248Z,19.20
2019-05-17T05:42:25.199Z,20.50
2019-05-17T05:43:32.667Z,17.82
2019-05-17T05:44:37.933Z,21.12
2019-05-17T05:45:43.533Z,20.37
2019-05-17T05:46:51.386Z,26.02
2019-05-17T05:47:56.457Z,19.95
2019-05-17T05:49:02.299Z,19.80
2019-05-17T05:50:07.736Z,19.77
2019-05-17T05:51:13.838Z,17.95
2019-05-17T05:52:21.710Z,18.55
2019-05-17T05:53:27.001Z,19.60
2019-05-17T05:54:32.149Z,21.60
2019-05-17T05:55:37.731Z,18.37
2019-05-17T05:56:43.002Z,19.92
2019-05-17T05:57:48.888Z,19.27
2019-05-17T05:58:54.169Z,19.30
2019-05-17T06:00:02.036Z,16.32
2019-05-17T06:01:06.473Z,17.23
2019-05-17T06:02:12.336Z,15.48
2019-05-17T06:03:17.632Z,19.23
2019-05-17T06:04:23.355Z,17.42
2019-05-17T06:05:29.003Z,17.57
2019-05-17T06:06:34.486Z,19.45
2019-05-17T06:07:41.572Z,17.30
2019-05-17T06:08:46.880Z,19.57
2019-05-17T06:09:52.022Z,18.42
2019-05-17T06:10:57.660Z,20.12
2019-05-17T06:12:02.805Z,14.90
2019-05-17T06:13:08.547Z,16.65
2019-05-17T06:14:13.815Z,17.15
2019-05-17T06:15:21.914Z,15.45
2019-05-17T06:16:27.345Z,17.98
2019-05-17T06:17:32.975Z,18.20
2019-05-17T06:18:37.998Z,18.55
2019-05-17T06:19:43.726Z,14.35
2019-05-17T06:20:48.946Z,17.48
2019-05-17T06:21:54.552Z,15.15
2019-05-17T06:22:59.885Z,13.70
2019-05-17T06:24:05.646Z,15.30
2019-05-17T06:25:15.096Z,13.58
2019-05-17T06:26:18.589Z,16.30
2019-05-17T06:27:23.596Z,14.83
2019-05-17T06:28:31.697Z,12.70
2019-05-17T06:29:36.144Z,13.38
2019-05-17T06:30:43.109Z,13.98
2019-05-17T06:31:48.266Z,13.43
2019-05-17T06:32:53.807Z,15.58
2019-05-17T06:33:59.081Z,17.37
2019-05-17T06:35:05.172Z,13.50
2019-05-17T06:36:10.604Z,12.05
2019-05-17T06:37:18.123Z,14.68
2019-05-17T06:38:23.587Z,16.70
2019-05-17T06:39:29.090Z,16.77
2019-05-17T06:40:34.122Z,16.17
2019-05-17T06:41:41.950Z,17.73
2019-05-17T06:42:46.655Z,13.80
2019-05-17T06:43:52.495Z,13.93
2019-05-17T06:44:58.092Z,15.25
2019-05-17T06:46:03.947Z,25.15
2019-05-17T06:47:11.706Z,15.88
2019-05-17T06:48:16.190Z,14.20
2019-05-17T06:49:22.486Z,13.62
2019-05-17T06:50:28.186Z,16.77
2019-05-17T06:51:33.144Z,15.43
2019-05-17T06:52:38.747Z,12.23
2019-05-17T06:53:43.748Z,14.45
2019-05-17T06:54:49.501Z,16.82
2019-05-17T06:55:54.881Z,14.60
2019-05-17T06:57:03.252Z,14.45
2019-05-17T06:58:07.526Z,16.67
2019-05-17T06:59:13.027Z,15.63
2019-05-17T07:00:23.413Z,11.35
2019-05-17T07:01:26.350Z,13.53
2019-05-17T07:02:31.431Z,14.05
2019-05-17T07:03:36.889Z,12.58
2019-05-17T07:04:42.511Z,12.88
2019-05-17T07:05:50.259Z,12.33
2019-05-17T07:07:13.054Z,12.25
2019-05-17T07:08:20.046Z,12.95
2019-05-17T07:09:25.293Z,14.68
2019-05-17T07:10:30.313Z,12.93
2019-05-17T07:11:35.787Z,13.53
2019-05-17T07:12:55.015Z,14.60
2019-05-17T07:13:50.980Z,13.25
2019-05-17T07:14:58.351Z,12.70
2019-05-17T07:16:03.421Z,15.83
2019-05-17T07:17:09.816Z,11.20
2019-05-17T07:18:15.603Z,10.65
2019-05-17T07:19:20.645Z,12.50
2019-05-17T07:20:26.250Z,11.63
2019-05-17T07:21:31.919Z,14.90
2019-05-17T07:22:40.455Z,16.93
2019-05-17T07:23:44.545Z,12.65
2019-05-17T07:24:50.487Z,11.90
2019-05-17T07:25:55.466Z,12.53
2019-05-17T07:27:01.160Z,14.87
2019-05-17T07:28:06.384Z,15.45
2019-05-17T07:29:12.361Z,12.80
2019-05-17T07:30:19.510Z,13.98
2019-05-17T07:31:25.091Z,11.00
2019-05-17T07:32:30.469Z,13.03
2019-05-17T07:33:36.305Z,11.03
2019-05-17T07:34:41.319Z,9.75
2019-05-17T07:35:47.159Z,8.80
2019-05-17T07:36:52.183Z,11.33
2019-05-17T07:37:59.562Z,12.43
2019-05-17T07:39:05.874Z,10.48
2019-05-17T07:40:11.754Z,11.48
2019-05-17T07:41:16.857Z,12.88
2019-05-17T07:42:23.048Z,15.25
2019-05-17T07:43:29.789Z,11.70
2019-05-17T07:44:35.624Z,11.48
2019-05-17T07:45:40.822Z,10.58
2019-05-17T07:46:46.456Z,11.93
2019-05-17T07:47:51.752Z,12.75
2019-05-17T07:49:00.206Z,14.80
2019-05-17T07:50:05.104Z,12.33
2019-05-17T07:51:10.820Z,11.73
2019-05-17T07:52:16.193Z,24.57
2019-05-17T07:53:21.850Z,11.88
2019-05-17T07:54:26.831Z,12.40
2019-05-17T07:55:32.411Z,13.20
2019-05-17T07:56:40.220Z,11.70
2019-05-17T07:57:45.587Z,11.97
2019-05-17T07:58:50.569Z,22.05
2019-05-17T07:59:56.107Z,12.25
2019-05-17T08:01:02.089Z,9.65
2019-05-17T08:02:10.465Z,13.00
2019-05-17T08:03:14.986Z,12.82
2019-05-17T08:04:20.645Z,10.90
2019-05-17T08:05:25.872Z,9.58
2019-05-17T08:06:31.398Z,13.08
2019-05-17T08:07:36.408Z,8.10
2019-05-17T08:08:42.053Z,9.00
2019-05-17T08:09:47.761Z,11.68
2019-05-17T08:10:53.793Z,9.38
2019-05-17T08:11:59.731Z,9.83
2019-05-17T08:13:05.815Z,12.37
2019-05-17T08:14:10.832Z,9.03
2019-05-17T08:15:16.728Z,9.60
2019-05-17T08:16:21.674Z,9.75
2019-05-17T08:17:27.219Z,9.88
2019-05-17T08:18:32.322Z,9.58
2019-05-17T08:19:40.254Z,12.15
2019-05-17T08:20:45.257Z,9.83
2019-05-17T08:21:50.861Z,10.08
2019-05-17T08:22:55.957Z,8.90
2019-05-17T08:24:01.777Z,9.80
2019-05-17T08:25:07.161Z,15.23
2019-05-17T08:26:13.102Z,9.83
2019-05-17T08:27:20.075Z,11.95
2019-05-17T08:28:27.240Z,11.55
2019-05-17T08:29:32.262Z,10.32
2019-05-17T08:30:40.548Z,11.10
2019-05-17T08:31:44.804Z,9.98
2019-05-17T08:32:50.701Z,11.63
2019-05-17T08:33:55.697Z,10.40
2019-05-17T08:35:01.225Z,16.85
2019-05-17T08:36:06.240Z,8.83
2019-05-17T08:37:12.304Z,8.73
2019-05-17T08:38:19.570Z,10.60
2019-05-17T08:39:24.933Z,13.65
2019-05-17T08:40:30.673Z,9.73
2019-05-17T08:41:36.306Z,8.70
2019-05-17T08:42:41.678Z,13.50
2019-05-17T08:43:47.347Z,8.18
2019-05-17T08:44:52.514Z,9.78
2019-05-17T08:46:01.605Z,10.23
2019-05-17T08:47:05.195Z,9.90
2019-05-17T08:48:10.800Z,10.18
2019-05-17T08:49:15.842Z,12.60
2019-05-17T08:50:22.188Z,12.30
2019-05-17T08:51:30.306Z,8.88
2019-05-17T08:52:35.730Z,12.13
2019-05-17T08:53:40.774Z,7.35
2019-05-17T08:54:46.711Z,10.68
2019-05-17T08:55:51.754Z,8.93
2019-05-17T08:56:57.334Z,9.90
2019-05-17T08:58:02.599Z,13.18
2019-05-17T08:59:09.632Z,6.83
2019-05-17T09:00:15.081Z,8.08
2019-05-17T09:01:20.774Z,8.35
2019-05-17T09:02:26.047Z,8.38
2019-05-17T09:03:31.547Z,10.03
2019-05-17T09:04:36.503Z,7.95
2019-05-17T09:05:42.123Z,8.43
2019-05-17T09:06:47.103Z,7.85
2019-05-17T09:07:52.696Z,9.23
2019-05-17T09:08:57.772Z,9.40
2019-05-17T09:10:03.726Z,9.60
2019-05-17T09:11:09.892Z,10.68
2019-05-17T09:12:15.794Z,9.03
2019-05-17T09:13:20.822Z,9.73
2019-05-17T09:14:29.345Z,6.35
2019-05-17T09:15:34.490Z,8.63
2019-05-17T09:16:40.319Z,7.53
2019-05-17T09:17:45.350Z,8.23
2019-05-17T09:18:50.948Z,6.35
2019-05-17T09:19:55.971Z,7.92
2019-05-17T09:21:01.619Z,7.62
2019-05-17T09:22:06.608Z,6.72
2019-05-17T09:23:12.640Z,6.75
2019-05-17T09:24:19.488Z,8.58
2019-05-17T09:25:24.860Z,10.63
2019-05-17T09:26:30.119Z,6.83
2019-05-17T09:27:36.176Z,9.33
2019-05-17T09:28:41.110Z,6.42
2019-05-17T09:29:46.706Z,5.08
2019-05-17T09:30:51.746Z,7.65
2019-05-17T09:31:59.802Z,5.90
2019-05-17T09:33:04.207Z,6.87
2019-05-17T09:34:10.012Z,6.47
2019-05-17T09:35:15.443Z,5.15
2019-05-17T09:36:21.016Z,5.83
2019-05-17T09:37:26.295Z,6.45
2019-05-17T09:38:31.854Z,7.85
2019-05-17T09:39:36.895Z,9.63
2019-05-17T09:40:42.430Z,7.83
2019-05-17T09:41:47.445Z,6.55
2019-05-17T09:42:53.148Z,10.50
2019-05-17T09:44:09.566Z,13.55
2019-05-17T09:45:06.062Z,6.95
2019-05-17T09:46:11.189Z,6.62
2019-05-17T09:47:17.022Z,9.40
2019-05-17T09:48:22.134Z,5.80
2019-05-17T09:49:29.917Z,5.58
2019-05-17T09:50:35.005Z,5.75
2019-05-17T09:51:40.642Z,5.97
2019-05-17T09:52:45.950Z,7.00
2019-05-17T09:53:51.450Z,5.62
2019-05-17T09:54:56.407Z,8.33
2019-05-17T09:56:02.176Z,6.70
2019-05-17T09:57:09.763Z,4.35
2019-05-17T09:58:15.203Z,6.35
2019-05-17T09:59:20.449Z,5.40
2019-05-17T10:00:29.556Z,6.45
2019-05-17T10:01:34.240Z,5.42
2019-05-17T10:02:40.410Z,5.90
2019-05-17T10:03:45.935Z,7.33
2019-05-17T10:04:51.827Z,8.05
2019-05-17T10:05:56.847Z,4.87
2019-05-17T10:07:02.428Z,5.50
2019-05-17T10:08:07.822Z,4.70
2019-05-17T10:09:14.263Z,4.28
2019-05-17T10:10:20.235Z,6.30
2019-05-17T10:11:26.835Z,4.00
2019-05-17T10:12:31.862Z,6.92
2019-05-17T10:13:37.438Z,8.63
2019-05-17T10:14:42.497Z,7.00
2019-05-17T10:15:50.009Z,5.42
2019-05-17T10:16:55.135Z,4.90
2019-05-17T10:18:00.805Z,4.72
2019-05-17T10:19:05.869Z,7.45
2019-05-17T10:20:12.446Z,5.80
2019-05-17T10:21:19.700Z,8.68
2019-05-17T10:22:24.696Z,5.20
2019-05-17T10:23:30.047Z,6.80
2019-05-17T10:24:41.562Z,6.67
2019-05-17T10:25:42.852Z,7.45
2019-05-17T10:26:49.886Z,5.97
2019-05-17T10:27:55.022Z,7.05
2019-05-17T10:29:00.715Z,6.33
2019-05-17T10:30:06.270Z,8.10
2019-05-17T10:31:12.268Z,5.70
2019-05-17T10:32:20.298Z,15.05
2019-05-17T10:33:24.910Z,8.10
2019-05-17T10:34:29.972Z,5.83
2019-05-17T10:35:35.605Z,8.00
2019-05-17T10:36:40.759Z,6.85
2019-05-17T10:37:46.306Z,4.65
2019-05-17T10:38:51.757Z,4.45
2019-05-17T10:39:57.407Z,9.13
2019-05-17T10:41:02.738Z,6.37
2019-05-17T10:42:10.017Z,7.67
2019-05-17T10:43:15.559Z,4.97
2019-05-17T10:44:21.093Z,8.20
2019-05-17T10:45:26.204Z,5.03
2019-05-17T10:46:31.875Z,4.10
2019-05-17T10:47:39.462Z,5.25
2019-05-17T10:48:44.149Z,7.30
2019-05-17T10:49:49.694Z,4.30
2019-05-17T10:50:55.404Z,6.25
2019-05-17T10:52:00.428Z,5.35
2019-05-17T10:53:06.104Z,4.17
2019-05-17T10:54:11.043Z,7.83
2019-05-17T10:55:16.755Z,9.65
2019-05-17T10:56:23.637Z,4.30
2019-05-17T10:57:30.405Z,4.55
2019-05-17T10:58:34.458Z,5.87
2019-05-17T10:59:39.706Z,4.62
2019-05-17T11:00:44.906Z,6.15
2019-05-17T11:01:50.730Z,5.70
2019-05-17T11:02:55.848Z,6.78
2019-05-17T11:04:01.211Z,5.87
2019-05-17T11:05:06.544Z,5.20
2019-05-17T11:06:11.987Z,4.62
2019-05-17T11:07:19.778Z,4.05
2019-05-17T11:08:24.348Z,4.08
2019-05-17T11:09:31.169Z,3.72
2019-05-17T11:10:39.192Z,4.72
2019-05-17T11:11:43.912Z,7.05
2019-05-17T11:12:49.667Z,8.15
2019-05-17T11:13:54.877Z,4.53
2019-05-17T11:15:11.080Z,4.37
2019-05-17T11:16:07.816Z,5.53
2019-05-17T11:17:13.725Z,5.72
2019-05-17T11:18:19.065Z,4.35
2019-05-17T11:19:24.461Z,7.28
2019-05-17T11:20:30.026Z,4.80
2019-05-17T11:21:35.594Z,4.58
2019-05-17T11:22:41.220Z,4.25
2019-05-17T11:23:46.733Z,8.73
2019-05-17T11:24:52.147Z,4.67
2019-05-17T11:25:57.850Z,5.72
2019-05-17T11:27:03.113Z,6.53
2019-05-17T11:28:08.649Z,6.00
2019-05-17T11:29:13.962Z,5.35
2019-05-17T11:30:19.654Z,6.00
2019-05-17T11:31:24.864Z,4.42
2019-05-17T11:32:30.532Z,7.25
2019-05-17T11:33:36.352Z,7.17
2019-05-17T11:34:41.716Z,5.80
2019-05-17T11:35:46.828Z,5.78
2019-05-17T11:36:52.463Z,4.42
2019-05-17T11:37:58.095Z,5.67
2019-05-17T11:39:03.997Z,5.62
2019-05-17T11:40:09.683Z,7.20
2019-05-17T11:41:21.122Z,9.30
2019-05-17T11:42:22.150Z,5.15
2019-05-17T11:43:27.587Z,6.25
2019-05-17T11:44:32.755Z,5.37
2019-05-17T11:45:38.180Z,4.62
2019-05-17T11:46:43.661Z,6.65
2019-05-17T11:47:49.114Z,5.47
2019-05-17T11:48:54.300Z,7.35
2019-05-17T11:49:59.625Z,6.28
2019-05-17T11:51:04.935Z,5.83
2019-05-17T11:52:10.602Z,6.03
2019-05-17T11:53:16.171Z,6.58
2019-05-17T11:54:21.879Z,5.85
2019-05-17T11:55:27.154Z,8.15
2019-05-17T11:56:32.644Z,7.33
2019-05-17T11:57:38.049Z,5.25
2019-05-17T11:58:43.502Z,4.83
2019-05-17T11:59:48.669Z,5.90
2019-05-17T12:00:54.100Z,5.30
2019-05-17T12:01:59.336Z,5.12
2019-05-17T12:03:04.786Z,5.62
2019-05-17T12:04:10.004Z,7.92
2019-05-17T12:05:15.891Z,7.95
2019-05-17T12:06:21.225Z,5.28
2019-05-17T12:07:27.050Z,8.38
2019-05-17T12:08:32.474Z,5.58
2019-05-17T12:09:38.509Z,6.78
2019-05-17T12:10:43.979Z,6.90
2019-05-17T12:11:49.568Z,12.37
2019-05-17T12:12:55.141Z,5.87
2019-05-17T12:14:00.482Z,6.65
2019-05-17T12:15:06.495Z,6.10
2019-05-17T12:16:11.946Z,6.62
2019-05-17T12:17:17.346Z,5.60
2019-05-17T12:18:22.709Z,8.43
2019-05-17T12:19:27.904Z,15.35
2019-05-17T12:20:33.598Z,6.08
2019-05-17T12:21:39.052Z,6.00
2019-05-17T12:22:44.788Z,6.25
2019-05-17T12:23:50.284Z,6.87
2019-05-17T12:24:55.790Z,5.80
2019-05-17T12:26:00.993Z,7.30
2019-05-17T12:27:06.435Z,5.83
2019-05-17T12:28:11.659Z,5.75
2019-05-17T12:29:17.183Z,9.60
2019-05-17T12:30:22.477Z,7.00
2019-05-17T12:31:27.939Z,8.85
2019-05-17T12:32:33.488Z,8.28
2019-05-17T12:33:38.960Z,7.17
2019-05-17T12:34:44.308Z,6.78
2019-05-17T12:35:49.648Z,12.85
2019-05-17T12:36:54.852Z,6.58
2019-05-17T12:38:00.157Z,5.90
2019-05-17T12:39:07.229Z,9.88
2019-05-17T12:40:13.122Z,9.20
2019-05-17T12:41:18.305Z,6.40
2019-05-17T12:42:23.713Z,5.60
2019-05-17T12:43:29.024Z,6.75
2019-05-17T12:44:37.198Z,5.97
2019-05-17T12:45:41.380Z,7.60
2019-05-17T12:46:46.907Z,8.80
2019-05-17T12:47:52.045Z,9.55
2019-05-17T12:48:57.370Z,11.90
2019-05-17T12:50:02.808Z,5.87
2019-05-17T12:51:08.248Z,9.58
2019-05-17T12:52:13.422Z,5.87
2019-05-17T12:53:18.819Z,10.08
2019-05-17T12:54:24.504Z,5.37
2019-05-17T12:55:29.964Z,8.45
2019-05-17T12:56:35.035Z,9.05
2019-05-17T12:57:40.506Z,8.98
2019-05-17T12:58:46.238Z,7.47
2019-05-17T12:59:51.622Z,6.12
2019-05-17T13:00:57.086Z,7.40
2019-05-17T13:02:02.806Z,7.40
2019-05-17T13:03:08.084Z,6.65
2019-05-17T13:04:14.115Z,9.45
2019-05-17T13:05:19.412Z,6.17
2019-05-17T13:06:25.067Z,6.25
2019-05-17T13:07:30.161Z,6.87
2019-05-17T13:08:36.102Z,7.55
2019-05-17T13:09:41.401Z,9.80
2019-05-17T13:10:46.861Z,8.50
2019-05-17T13:11:52.162Z,6.58
2019-05-17T13:12:58.147Z,8.53
2019-05-17T13:14:03.453Z,7.78
2019-05-17T13:15:10.030Z,7.20
2019-05-17T13:16:18.927Z,8.63
2019-05-17T13:17:22.692Z,8.30
2019-05-17T13:18:28.135Z,8.60
2019-05-17T13:19:33.551Z,7.70
2019-05-17T13:20:39.024Z,7.75
2019-05-17T13:21:44.370Z,10.48
2019-05-17T13:22:50.199Z,8.50
2019-05-17T13:23:55.522Z,9.73
2019-05-17T13:25:00.664Z,8.18
2019-05-17T13:26:06.119Z,10.20
2019-05-17T13:27:11.291Z,6.83
2019-05-17T13:28:16.612Z,7.58
2019-05-17T13:29:21.798Z,12.78
2019-05-17T13:30:27.179Z,7.20
2019-05-17T13:31:32.397Z,8.00
2019-05-17T13:32:37.839Z,8.00
2019-05-17T13:33:43.626Z,7.65
2019-05-17T13:34:48.987Z,8.38
2019-05-17T13:35:54.092Z,7.80
2019-05-17T13:36:59.811Z,19.55
2019-05-17T13:38:05.095Z,10.63
2019-05-17T13:39:10.554Z,15.78
2019-05-17T13:40:16.101Z,7.87
2019-05-17T13:41:21.393Z,8.33
2019-05-17T13:42:27.984Z,9.03
2019-05-17T13:43:33.486Z,6.83
2019-05-17T13:44:39.045Z,7.80
2019-05-17T13:45:45.135Z,11.75
2019-05-17T13:46:52.333Z,9.18
2019-05-17T13:47:57.677Z,8.45
2019-05-17T13:49:02.824Z,9.88
2019-05-17T13:50:09.080Z,6.72
2019-05-17T13:51:14.245Z,6.90
2019-05-17T13:52:19.569Z,7.25
2019-05-17T13:53:24.984Z,9.43
2019-05-17T13:54:30.581Z,8.30
2019-05-17T13:55:35.751Z,7.92
2019-05-17T13:56:41.891Z,7.33
2019-05-17T13:57:47.075Z,7.12
2019-05-17T13:58:52.643Z,7.00
2019-05-17T13:59:57.812Z,11.10
2019-05-17T14:01:03.473Z,8.63
2019-05-17T14:02:08.648Z,8.98
2019-05-17T14:03:13.974Z,8.00
2019-05-17T14:04:19.177Z,9.53
2019-05-17T14:05:24.800Z,8.20
2019-05-17T14:06:30.055Z,6.70
2019-05-17T14:07:35.397Z,7.53
2019-05-17T14:08:40.689Z,9.60
2019-05-17T14:09:46.348Z,7.40
2019-05-17T14:10:51.617Z,8.15
2019-05-17T14:11:57.282Z,11.75
2019-05-17T14:13:02.789Z,10.63
2019-05-17T14:14:08.522Z,8.33
2019-05-17T14:15:14.336Z,6.75
2019-05-17T14:16:19.629Z,9.73
2019-05-17T14:17:25.114Z,9.53
2019-05-17T14:18:30.426Z,9.93
2019-05-17T14:19:35.609Z,8.83
2019-05-17T14:20:40.983Z,8.28
2019-05-17T14:21:46.115Z,7.90